sensor_id;sensor_type;location;lat;lon;timestamp;pressure;altitude;pressure_sealevel;temperature;humidity
64792;BME280;51226;47.504;19.074;2023-01-31T00:02:32;99940.97;;;4.07;73.46
64792;BME280;51226;47.504;19.074;2023-01-31T00:05:36;99943.13;;;4.00;73.94
64792;BME280;51226;47.504;19.074;2023-01-31T00:08:39;99919.56;;;3.94;73.89
64792;BME280;51226;47.504;19.074;2023-01-31T00:11:42;99934.41;;;3.98;74.05
64792;BME280;51226;47.504;19.074;2023-01-31T00:14:45;99922.59;;;3.86;73.84
64792;BME280;51226;47.504;19.074;2023-01-31T00:17:48;99905.16;;;3.82;74.02
64792;BME280;51226;47.504;19.074;2023-01-31T00:20:51;99911.81;;;3.94;73.19
64792;BME280;51226;47.504;19.074;2023-01-31T00:23:55;99931.03;;;3.99;72.86
64792;BME280;51226;47.504;19.074;2023-01-31T00:26:58;99928.97;;;4.08;72.94
64792;BME280;51226;47.504;19.074;2023-01-31T00:30:01;99916.87;;;4.07;74.25
64792;BME280;51226;47.504;19.074;2023-01-31T00:33:04;99929.84;;;4.08;74.81
64792;BME280;51226;47.504;19.074;2023-01-31T00:36:15;99909.81;;;4.19;74.52
64792;BME280;51226;47.504;19.074;2023-01-31T00:39:19;99897.38;;;4.12;74.87
64792;BME280;51226;47.504;19.074;2023-01-31T00:42:22;99886.94;;;4.11;74.81
64792;BME280;51226;47.504;19.074;2023-01-31T00:45:25;99891.06;;;4.07;75.51
64792;BME280;51226;47.504;19.074;2023-01-31T00:48:28;99884.41;;;3.96;75.52
64792;BME280;51226;47.504;19.074;2023-01-31T00:51:30;99888.78;;;3.97;74.84
64792;BME280;51226;47.504;19.074;2023-01-31T00:54:34;99893.38;;;4.02;74.95
64792;BME280;51226;47.504;19.074;2023-01-31T00:57:37;99898.53;;;4.02;74.42
64792;BME280;51226;47.504;19.074;2023-01-31T01:00:40;99888.59;;;3.94;74.07
64792;BME280;51226;47.504;19.074;2023-01-31T01:03:44;99899.34;;;4.01;73.54
64792;BME280;51226;47.504;19.074;2023-01-31T01:06:48;99893.16;;;3.98;72.96
64792;BME280;51226;47.504;19.074;2023-01-31T01:09:51;99901.37;;;4.07;72.49
64792;BME280;51226;47.504;19.074;2023-01-31T01:12:56;99899.63;;;4.06;71.41
64792;BME280;51226;47.504;19.074;2023-01-31T01:16:04;99898.03;;;3.93;71.39
64792;BME280;51226;47.504;19.074;2023-01-31T01:19:12;99893.38;;;4.02;70.53
64792;BME280;51226;47.504;19.074;2023-01-31T01:22:16;99894.19;;;4.01;70.24
64792;BME280;51226;47.504;19.074;2023-01-31T01:25:19;99882.66;;;3.95;70.31
64792;BME280;51226;47.504;19.074;2023-01-31T01:28:22;99890.78;;;4.02;69.69
64792;BME280;51226;47.504;19.074;2023-01-31T01:31:27;99883.62;;;3.97;69.80
64792;BME280;51226;47.504;19.074;2023-01-31T01:34:33;99890.00;;;4.03;69.45
64792;BME280;51226;47.504;19.074;2023-01-31T01:37:37;99875.56;;;4.07;69.19
64792;BME280;51226;47.504;19.074;2023-01-31T01:40:40;99893.28;;;4.01;69.35
64792;BME280;51226;47.504;19.074;2023-01-31T01:43:46;99887.16;;;3.99;69.19
64792;BME280;51226;47.504;19.074;2023-01-31T01:46:49;99886.72;;;4.06;68.97
64792;BME280;51226;47.504;19.074;2023-01-31T01:49:57;99892.31;;;3.99;68.93
64792;BME280;51226;47.504;19.074;2023-01-31T01:53:08;99916.50;;;4.01;69.01
64792;BME280;51226;47.504;19.074;2023-01-31T01:56:18;99908.75;;;4.01;69.02
64792;BME280;51226;47.504;19.074;2023-01-31T01:59:26;99908.19;;;3.90;69.46
64792;BME280;51226;47.504;19.074;2023-01-31T02:02:31;99916.44;;;3.99;68.69
64792;BME280;51226;47.504;19.074;2023-01-31T02:05:51;99910.56;;;4.02;68.54
64792;BME280;51226;47.504;19.074;2023-01-31T02:08:54;99936.47;;;3.88;69.22
64792;BME280;51226;47.504;19.074;2023-01-31T02:11:57;99952.41;;;3.81;69.81
64792;BME280;51226;47.504;19.074;2023-01-31T02:15:01;99952.41;;;3.81;69.67
64792;BME280;51226;47.504;19.074;2023-01-31T02:18:05;99948.75;;;3.93;69.36
64792;BME280;51226;47.504;19.074;2023-01-31T02:34:15;99970.87;;;3.89;69.44
64792;BME280;51226;47.504;19.074;2023-01-31T02:37:36;99961.28;;;3.86;69.47
64792;BME280;51226;47.504;19.074;2023-01-31T02:40:51;99968.47;;;3.92;69.24
64792;BME280;51226;47.504;19.074;2023-01-31T02:44:00;99949.09;;;3.84;69.45
64792;BME280;51226;47.504;19.074;2023-01-31T02:50:37;99945.91;;;3.88;68.75
64792;BME280;51226;47.504;19.074;2023-01-31T02:56:49;99953.47;;;3.85;68.68
64792;BME280;51226;47.504;19.074;2023-01-31T02:59:54;99946.31;;;3.81;68.75
64792;BME280;51226;47.504;19.074;2023-01-31T03:02:57;99966.81;;;3.78;68.80
64792;BME280;51226;47.504;19.074;2023-01-31T03:13:17;99990.62;;;3.74;68.94
64792;BME280;51226;47.504;19.074;2023-01-31T03:16:49;99986.97;;;3.70;69.12
64792;BME280;51226;47.504;19.074;2023-01-31T03:23:31;100009.56;;;3.74;68.71
64792;BME280;51226;47.504;19.074;2023-01-31T03:26:38;100005.72;;;3.67;69.21
64792;BME280;51226;47.504;19.074;2023-01-31T03:29:42;100009.41;;;3.71;69.00
64792;BME280;51226;47.504;19.074;2023-01-31T03:32:53;100015.91;;;3.79;68.45
64792;BME280;51226;47.504;19.074;2023-01-31T03:39:37;100013.94;;;3.90;67.72
64792;BME280;51226;47.504;19.074;2023-01-31T03:42:54;100014.31;;;3.96;67.16
64792;BME280;51226;47.504;19.074;2023-01-31T03:46:10;100030.31;;;3.90;67.46
64792;BME280;51226;47.504;19.074;2023-01-31T03:49:19;100030.47;;;3.94;67.45
64792;BME280;51226;47.504;19.074;2023-01-31T03:52:30;100031.13;;;3.89;67.57
64792;BME280;51226;47.504;19.074;2023-01-31T03:55:42;100048.03;;;3.84;67.99
64792;BME280;51226;47.504;19.074;2023-01-31T03:58:50;100036.81;;;3.99;67.45
64792;BME280;51226;47.504;19.074;2023-01-31T04:01:58;100037.78;;;3.86;67.84
64792;BME280;51226;47.504;19.074;2023-01-31T04:05:10;100036.47;;;3.93;67.28
64792;BME280;51226;47.504;19.074;2023-01-31T04:08:15;100045.88;;;3.92;67.59
64792;BME280;51226;47.504;19.074;2023-01-31T04:11:20;100039.03;;;3.93;67.42
64792;BME280;51226;47.504;19.074;2023-01-31T04:14:23;100054.84;;;3.84;67.91
64792;BME280;51226;47.504;19.074;2023-01-31T04:17:26;100065.50;;;3.75;68.34
64792;BME280;51226;47.504;19.074;2023-01-31T04:20:29;100064.47;;;3.86;67.61
64792;BME280;51226;47.504;19.074;2023-01-31T04:23:32;100075.38;;;3.82;67.93
64792;BME280;51226;47.504;19.074;2023-01-31T04:26:35;100076.03;;;3.78;68.05
64792;BME280;51226;47.504;19.074;2023-01-31T04:29:38;100093.78;;;3.74;68.37
64792;BME280;51226;47.504;19.074;2023-01-31T04:32:42;100075.38;;;3.82;68.07
64792;BME280;51226;47.504;19.074;2023-01-31T04:35:45;100089.50;;;3.74;68.67
64792;BME280;51226;47.504;19.074;2023-01-31T04:38:47;100088.19;;;3.66;69.51
64792;BME280;51226;47.504;19.074;2023-01-31T04:41:51;100096.84;;;3.81;69.44
64792;BME280;51226;47.504;19.074;2023-01-31T04:44:54;100106.09;;;3.78;69.83
64792;BME280;51226;47.504;19.074;2023-01-31T04:47:57;100099.41;;;3.81;69.96
64792;BME280;51226;47.504;19.074;2023-01-31T04:51:00;100094.94;;;3.79;70.39
64792;BME280;51226;47.504;19.074;2023-01-31T04:54:04;100118.78;;;3.75;70.85
64792;BME280;51226;47.504;19.074;2023-01-31T04:57:07;100119.19;;;3.67;71.21
64792;BME280;51226;47.504;19.074;2023-01-31T05:00:11;100119.72;;;3.62;71.76
64792;BME280;51226;47.504;19.074;2023-01-31T05:03:14;100152.66;;;3.66;72.13
64792;BME280;51226;47.504;19.074;2023-01-31T05:06:17;100159.75;;;3.70;72.35
64792;BME280;51226;47.504;19.074;2023-01-31T05:09:19;100143.88;;;3.77;72.28
64792;BME280;51226;47.504;19.074;2023-01-31T05:12:24;100168.12;;;3.66;73.01
64792;BME280;51226;47.504;19.074;2023-01-31T05:15:27;100168.34;;;3.84;73.01
64792;BME280;51226;47.504;19.074;2023-01-31T05:18:31;100170.00;;;3.97;73.43
64792;BME280;51226;47.504;19.074;2023-01-31T05:21:33;100163.47;;;3.88;75.29
64792;BME280;51226;47.504;19.074;2023-01-31T05:24:56;100164.81;;;3.97;76.43
64792;BME280;51226;47.504;19.074;2023-01-31T05:28:00;100150.09;;;3.81;77.25
64792;BME280;51226;47.504;19.074;2023-01-31T05:31:06;100158.69;;;3.66;77.79
64792;BME280;51226;47.504;19.074;2023-01-31T05:34:09;100159.09;;;3.73;77.91
64792;BME280;51226;47.504;19.074;2023-01-31T05:37:17;100144.63;;;3.61;78.08
64792;BME280;51226;47.504;19.074;2023-01-31T05:40:20;100154.75;;;3.58;78.12
64792;BME280;51226;47.504;19.074;2023-01-31T05:43:24;100153.88;;;3.58;78.15
64792;BME280;51226;47.504;19.074;2023-01-31T05:46:26;100146.59;;;3.65;77.21
64792;BME280;51226;47.504;19.074;2023-01-31T05:49:29;100152.84;;;3.56;77.26
64792;BME280;51226;47.504;19.074;2023-01-31T05:52:34;100150.41;;;3.44;77.27
64792;BME280;51226;47.504;19.074;2023-01-31T05:55:37;100146.56;;;3.37;77.27
64792;BME280;51226;47.504;19.074;2023-01-31T05:58:40;100161.72;;;3.46;75.79
64792;BME280;51226;47.504;19.074;2023-01-31T06:01:43;100148.34;;;3.38;75.68
64792;BME280;51226;47.504;19.074;2023-01-31T06:04:46;100138.69;;;3.49;74.62
64792;BME280;51226;47.504;19.074;2023-01-31T06:07:50;100149.53;;;3.43;74.31
64792;BME280;51226;47.504;19.074;2023-01-31T06:10:53;100147.38;;;3.36;74.41
64792;BME280;51226;47.504;19.074;2023-01-31T06:13:56;100145.34;;;3.45;73.69
64792;BME280;51226;47.504;19.074;2023-01-31T06:17:00;100151.69;;;3.50;72.86
64792;BME280;51226;47.504;19.074;2023-01-31T06:20:04;100157.66;;;3.49;72.71
64792;BME280;51226;47.504;19.074;2023-01-31T06:23:07;100150.47;;;3.59;71.95
64792;BME280;51226;47.504;19.074;2023-01-31T06:26:10;100163.47;;;3.60;71.26
64792;BME280;51226;47.504;19.074;2023-01-31T06:29:13;100172.50;;;3.53;71.33
64792;BME280;51226;47.504;19.074;2023-01-31T06:32:19;100176.69;;;3.51;71.33
64792;BME280;51226;47.504;19.074;2023-01-31T06:35:22;100172.41;;;3.52;70.99
64792;BME280;51226;47.504;19.074;2023-01-31T06:38:26;100182.00;;;3.68;69.64
64792;BME280;51226;47.504;19.074;2023-01-31T06:41:29;100188.44;;;3.75;68.99
64792;BME280;51226;47.504;19.074;2023-01-31T06:44:34;100195.19;;;3.73;69.09
64792;BME280;51226;47.504;19.074;2023-01-31T06:47:39;100199.94;;;3.66;69.52
64792;BME280;51226;47.504;19.074;2023-01-31T06:50:43;100199.53;;;3.74;68.94
64792;BME280;51226;47.504;19.074;2023-01-31T06:53:46;100201.62;;;3.79;68.64
64792;BME280;51226;47.504;19.074;2023-01-31T06:56:49;100201.97;;;3.85;68.09
64792;BME280;51226;47.504;19.074;2023-01-31T06:59:52;100204.47;;;3.84;67.75
64792;BME280;51226;47.504;19.074;2023-01-31T07:02:55;100223.72;;;3.76;68.35
64792;BME280;51226;47.504;19.074;2023-01-31T07:05:58;100228.16;;;3.92;67.48
64792;BME280;51226;47.504;19.074;2023-01-31T07:09:01;100222.97;;;4.05;66.48
64792;BME280;51226;47.504;19.074;2023-01-31T07:12:04;100237.81;;;4.09;66.26
64792;BME280;51226;47.504;19.074;2023-01-31T07:15:08;100234.59;;;4.26;65.57
64792;BME280;51226;47.504;19.074;2023-01-31T07:18:12;100239.75;;;4.26;65.63
64792;BME280;51226;47.504;19.074;2023-01-31T07:21:15;100246.19;;;4.33;64.94
64792;BME280;51226;47.504;19.074;2023-01-31T07:24:18;100252.03;;;4.31;65.63
64792;BME280;51226;47.504;19.074;2023-01-31T07:27:20;100246.12;;;4.47;64.70
64792;BME280;51226;47.504;19.074;2023-01-31T07:30:23;100263.06;;;4.56;64.13
64792;BME280;51226;47.504;19.074;2023-01-31T07:33:27;100261.09;;;4.67;63.46
64792;BME280;51226;47.504;19.074;2023-01-31T07:36:31;100273.06;;;4.80;63.03
64792;BME280;51226;47.504;19.074;2023-01-31T07:39:36;100277.31;;;4.94;62.86
64792;BME280;51226;47.504;19.074;2023-01-31T07:42:58;100290.63;;;5.15;62.00
64792;BME280;51226;47.504;19.074;2023-01-31T07:46:01;100292.75;;;5.37;61.47
64792;BME280;51226;47.504;19.074;2023-01-31T07:49:05;100287.38;;;5.34;61.18
64792;BME280;51226;47.504;19.074;2023-01-31T07:52:08;100282.09;;;5.63;60.16
64792;BME280;51226;47.504;19.074;2023-01-31T07:55:11;100293.72;;;5.86;59.70
64792;BME280;51226;47.504;19.074;2023-01-31T07:58:15;100300.22;;;6.25;57.16
64792;BME280;51226;47.504;19.074;2023-01-31T08:01:24;100291.31;;;6.70;55.95
64792;BME280;51226;47.504;19.074;2023-01-31T08:04:46;100294.69;;;7.19;55.05
64792;BME280;51226;47.504;19.074;2023-01-31T08:07:52;100300.50;;;8.04;51.42
64792;BME280;51226;47.504;19.074;2023-01-31T08:11:12;100293.84;;;8.48;50.97
64792;BME280;51226;47.504;19.074;2023-01-31T08:14:15;100307.31;;;8.98;48.87
64792;BME280;51226;47.504;19.074;2023-01-31T08:17:18;100317.19;;;9.26;48.76
64792;BME280;51226;47.504;19.074;2023-01-31T08:20:21;100312.69;;;9.87;46.78
64792;BME280;51226;47.504;19.074;2023-01-31T08:23:26;100322.47;;;10.84;44.74
64792;BME280;51226;47.504;19.074;2023-01-31T08:26:29;100329.66;;;11.68;44.24
64792;BME280;51226;47.504;19.074;2023-01-31T08:29:33;100347.38;;;12.62;40.51
64792;BME280;51226;47.504;19.074;2023-01-31T08:32:35;100345.63;;;13.95;38.63
64792;BME280;51226;47.504;19.074;2023-01-31T08:35:38;100351.50;;;16.68;32.55
64792;BME280;51226;47.504;19.074;2023-01-31T08:38:41;100353.97;;;18.46;29.22
64792;BME280;51226;47.504;19.074;2023-01-31T08:41:45;100355.16;;;19.14;28.28
64792;BME280;51226;47.504;19.074;2023-01-31T08:44:49;100371.03;;;19.10;27.59
64792;BME280;51226;47.504;19.074;2023-01-31T08:47:56;100374.41;;;18.82;28.67
64792;BME280;51226;47.504;19.074;2023-01-31T08:51:00;100378.12;;;19.37;28.19
64792;BME280;51226;47.504;19.074;2023-01-31T08:54:14;100385.28;;;19.76;26.58
64792;BME280;51226;47.504;19.074;2023-01-31T08:57:20;100373.75;;;19.62;27.82
64792;BME280;51226;47.504;19.074;2023-01-31T09:00:23;100385.22;;;20.24;26.75
64792;BME280;51226;47.504;19.074;2023-01-31T09:03:26;100385.81;;;21.22;25.07
64792;BME280;51226;47.504;19.074;2023-01-31T09:06:30;100385.13;;;22.14;24.78
64792;BME280;51226;47.504;19.074;2023-01-31T09:09:33;100380.59;;;22.29;23.44
64792;BME280;51226;47.504;19.074;2023-01-31T09:12:37;100393.59;;;22.55;23.07
64792;BME280;51226;47.504;19.074;2023-01-31T09:15:39;100392.81;;;24.32;21.54
64792;BME280;51226;47.504;19.074;2023-01-31T09:18:42;100393.03;;;25.52;20.10
64792;BME280;51226;47.504;19.074;2023-01-31T09:21:45;100400.06;;;25.14;19.69
64792;BME280;51226;47.504;19.074;2023-01-31T09:24:50;100396.34;;;23.82;22.06
64792;BME280;51226;47.504;19.074;2023-01-31T09:27:53;100387.81;;;24.13;22.11
64792;BME280;51226;47.504;19.074;2023-01-31T09:31:05;100401.47;;;23.95;20.94
64792;BME280;51226;47.504;19.074;2023-01-31T09:34:08;100399.09;;;23.75;21.62
64792;BME280;51226;47.504;19.074;2023-01-31T09:37:12;100406.34;;;23.65;21.97
64792;BME280;51226;47.504;19.074;2023-01-31T09:40:20;100386.88;;;23.61;21.17
64792;BME280;51226;47.504;19.074;2023-01-31T09:43:31;100404.00;;;24.04;21.25
64792;BME280;51226;47.504;19.074;2023-01-31T09:46:39;100404.47;;;24.76;20.70
64792;BME280;51226;47.504;19.074;2023-01-31T09:49:50;100408.22;;;26.88;19.16
64792;BME280;51226;47.504;19.074;2023-01-31T09:52:54;100410.78;;;29.31;16.68
64792;BME280;51226;47.504;19.074;2023-01-31T09:56:27;100403.88;;;30.95;15.53
64792;BME280;51226;47.504;19.074;2023-01-31T10:03:51;100412.63;;;31.00;14.98
64792;BME280;51226;47.504;19.074;2023-01-31T10:07:55;100402.78;;;31.92;14.36
64792;BME280;51226;47.504;19.074;2023-01-31T10:10:36;100407.59;;;31.86;13.97
64792;BME280;51226;47.504;19.074;2023-01-31T10:13:48;100406.22;;;31.40;14.51
64792;BME280;51226;47.504;19.074;2023-01-31T10:17:09;100411.44;;;30.25;15.53
64792;BME280;51226;47.504;19.074;2023-01-31T10:20:24;100407.41;;;28.79;16.62
64792;BME280;51226;47.504;19.074;2023-01-31T10:23:44;100420.78;;;28.03;17.21
64792;BME280;51226;47.504;19.074;2023-01-31T10:26:51;100410.37;;;29.42;16.53
64792;BME280;51226;47.504;19.074;2023-01-31T10:29:59;100409.53;;;31.09;14.44
64792;BME280;51226;47.504;19.074;2023-01-31T10:33:16;100404.31;;;31.24;14.46
64792;BME280;51226;47.504;19.074;2023-01-31T10:36:30;100391.44;;;32.73;12.93
64792;BME280;51226;47.504;19.074;2023-01-31T10:43:37;100386.56;;;31.57;13.72
64792;BME280;51226;47.504;19.074;2023-01-31T10:46:42;100395.66;;;29.73;14.89
64792;BME280;51226;47.504;19.074;2023-01-31T11:06:00;100390.50;;;19.46;24.29
64792;BME280;51226;47.504;19.074;2023-01-31T11:09:04;100389.56;;;17.79;26.63
64792;BME280;51226;47.504;19.074;2023-01-31T11:19:39;100380.97;;;15.83;29.90
64792;BME280;51226;47.504;19.074;2023-01-31T11:22:46;100374.25;;;16.02;29.23
64792;BME280;51226;47.504;19.074;2023-01-31T11:25:49;100366.19;;;15.91;28.80
64792;BME280;51226;47.504;19.074;2023-01-31T11:36:13;100368.66;;;15.82;29.16
64792;BME280;51226;47.504;19.074;2023-01-31T11:43:34;100363.06;;;15.63;29.24
64792;BME280;51226;47.504;19.074;2023-01-31T11:46:47;100362.87;;;15.51;29.41
64792;BME280;51226;47.504;19.074;2023-01-31T11:49:51;100362.75;;;15.45;28.79
64792;BME280;51226;47.504;19.074;2023-01-31T11:52:57;100350.91;;;15.19;30.35
64792;BME280;51226;47.504;19.074;2023-01-31T11:56:12;100355.84;;;15.03;30.48
64792;BME280;51226;47.504;19.074;2023-01-31T11:59:21;100365.84;;;14.78;29.39
64792;BME280;51226;47.504;19.074;2023-01-31T12:02:35;100346.63;;;14.00;31.17
64792;BME280;51226;47.504;19.074;2023-01-31T12:05:42;100354.84;;;13.42;30.66
64792;BME280;51226;47.504;19.074;2023-01-31T12:08:53;100356.09;;;13.25;31.25
64792;BME280;51226;47.504;19.074;2023-01-31T12:11:59;100355.16;;;13.23;31.56
64792;BME280;51226;47.504;19.074;2023-01-31T12:15:13;100345.06;;;13.03;31.11
64792;BME280;51226;47.504;19.074;2023-01-31T12:18:47;100342.66;;;12.81;32.47
64792;BME280;51226;47.504;19.074;2023-01-31T12:22:32;100341.25;;;12.92;33.21
64792;BME280;51226;47.504;19.074;2023-01-31T12:39:31;100354.12;;;13.49;32.93
64792;BME280;51226;47.504;19.074;2023-01-31T12:42:57;100348.22;;;13.57;31.71
64792;BME280;51226;47.504;19.074;2023-01-31T13:01:26;100360.47;;;11.79;34.82
64792;BME280;51226;47.504;19.074;2023-01-31T13:12:52;100398.06;;;10.36;39.47
64792;BME280;51226;47.504;19.074;2023-01-31T13:19:33;100417.41;;;9.78;40.44
64792;BME280;51226;47.504;19.074;2023-01-31T13:22:47;100423.28;;;9.53;40.95
64792;BME280;51226;47.504;19.074;2023-01-31T13:25:56;100422.34;;;9.51;41.13
64792;BME280;51226;47.504;19.074;2023-01-31T13:32:56;100422.66;;;10.43;40.63
64792;BME280;51226;47.504;19.074;2023-01-31T13:39:41;100429.19;;;14.16;33.62
64792;BME280;51226;47.504;19.074;2023-01-31T13:42:45;100437.53;;;13.32;35.49
64792;BME280;51226;47.504;19.074;2023-01-31T13:46:02;100437.16;;;12.32;37.10
64792;BME280;51226;47.504;19.074;2023-01-31T13:49:15;100449.97;;;11.47;38.58
64792;BME280;51226;47.504;19.074;2023-01-31T13:52:28;100445.94;;;11.07;39.37
64792;BME280;51226;47.504;19.074;2023-01-31T13:55:37;100438.47;;;10.70;40.34
64792;BME280;51226;47.504;19.074;2023-01-31T13:58:42;100436.81;;;10.49;39.34
64792;BME280;51226;47.504;19.074;2023-01-31T14:01:47;100438.88;;;10.14;39.51
64792;BME280;51226;47.504;19.074;2023-01-31T14:04:52;100444.13;;;9.53;42.36
64792;BME280;51226;47.504;19.074;2023-01-31T14:11:54;100458.50;;;8.86;43.35
64792;BME280;51226;47.504;19.074;2023-01-31T14:14:58;100455.81;;;8.47;44.70
64792;BME280;51226;47.504;19.074;2023-01-31T14:18:01;100466.88;;;8.61;44.28
64792;BME280;51226;47.504;19.074;2023-01-31T14:21:41;100471.25;;;8.26;45.68
64792;BME280;51226;47.504;19.074;2023-01-31T14:28:02;100471.97;;;8.23;46.51
64792;BME280;51226;47.504;19.074;2023-01-31T14:31:11;100475.56;;;8.25;46.46
64792;BME280;51226;47.504;19.074;2023-01-31T14:34:35;100480.03;;;7.93;47.21
64792;BME280;51226;47.504;19.074;2023-01-31T14:44:21;100478.34;;;7.43;50.15
64792;BME280;51226;47.504;19.074;2023-01-31T14:51:11;100479.50;;;7.15;51.56
64792;BME280;51226;47.504;19.074;2023-01-31T14:54:50;100480.97;;;7.10;52.04
64792;BME280;51226;47.504;19.074;2023-01-31T14:58:00;100485.47;;;6.98;52.75
64792;BME280;51226;47.504;19.074;2023-01-31T15:01:07;100481.66;;;6.91;53.99
64792;BME280;51226;47.504;19.074;2023-01-31T15:04:18;100482.94;;;6.83;54.88
64792;BME280;51226;47.504;19.074;2023-01-31T15:07:22;100474.37;;;6.84;55.25
64792;BME280;51226;47.504;19.074;2023-01-31T15:10:56;100470.38;;;6.74;55.96
64792;BME280;51226;47.504;19.074;2023-01-31T15:17:37;100468.00;;;6.94;55.14
64792;BME280;51226;47.504;19.074;2023-01-31T15:20:44;100478.59;;;6.82;55.40
64792;BME280;51226;47.504;19.074;2023-01-31T15:23:52;100491.69;;;6.68;55.93
64792;BME280;51226;47.504;19.074;2023-01-31T15:26:58;100490.09;;;6.56;56.49
64792;BME280;51226;47.504;19.074;2023-01-31T15:33:21;100499.25;;;6.34;59.16
64792;BME280;51226;47.504;19.074;2023-01-31T15:36:43;100497.53;;;6.35;59.94
64792;BME280;51226;47.504;19.074;2023-01-31T15:43:21;100492.75;;;6.26;60.78
64792;BME280;51226;47.504;19.074;2023-01-31T15:46:29;100494.19;;;6.21;60.50
64792;BME280;51226;47.504;19.074;2023-01-31T15:49:39;100484.78;;;6.23;60.78
64792;BME280;51226;47.504;19.074;2023-01-31T15:52:43;100486.06;;;6.15;60.77
64792;BME280;51226;47.504;19.074;2023-01-31T15:55:47;100478.94;;;6.10;61.14
64792;BME280;51226;47.504;19.074;2023-01-31T15:58:54;100483.47;;;6.00;61.83
64792;BME280;51226;47.504;19.074;2023-01-31T16:02:03;100488.00;;;5.89;62.42
64792;BME280;51226;47.504;19.074;2023-01-31T16:05:06;100492.13;;;5.85;63.22
64792;BME280;51226;47.504;19.074;2023-01-31T16:08:36;100485.34;;;5.87;62.88
64792;BME280;51226;47.504;19.074;2023-01-31T16:11:40;100478.34;;;5.86;62.87
64792;BME280;51226;47.504;19.074;2023-01-31T16:14:45;100482.28;;;5.80;62.82
64792;BME280;51226;47.504;19.074;2023-01-31T16:17:50;100476.50;;;5.84;63.28
64792;BME280;51226;47.504;19.074;2023-01-31T16:20:54;100479.19;;;5.85;63.02
64792;BME280;51226;47.504;19.074;2023-01-31T16:23:58;100477.03;;;5.78;63.70
64792;BME280;51226;47.504;19.074;2023-01-31T16:27:07;100487.13;;;5.88;63.36
64792;BME280;51226;47.504;19.074;2023-01-31T16:30:16;100477.47;;;5.71;63.84
64792;BME280;51226;47.504;19.074;2023-01-31T16:33:22;100479.97;;;5.69;64.07
64792;BME280;51226;47.504;19.074;2023-01-31T16:39:59;100487.03;;;5.72;63.10
64792;BME280;51226;47.504;19.074;2023-01-31T16:46:48;100478.38;;;5.71;63.17
64792;BME280;51226;47.504;19.074;2023-01-31T16:53:18;100483.16;;;5.50;63.88
64792;BME280;51226;47.504;19.074;2023-01-31T16:56:26;100487.38;;;5.63;62.64
64792;BME280;51226;47.504;19.074;2023-01-31T17:02:39;100476.22;;;5.64;62.18
64792;BME280;51226;47.504;19.074;2023-01-31T17:05:44;100480.31;;;5.61;62.06
64792;BME280;51226;47.504;19.074;2023-01-31T17:08:50;100475.78;;;5.56;61.75
64792;BME280;51226;47.504;19.074;2023-01-31T17:11:53;100477.13;;;5.65;60.63
64792;BME280;51226;47.504;19.074;2023-01-31T17:15:00;100471.69;;;5.60;60.94
64792;BME280;51226;47.504;19.074;2023-01-31T17:18:07;100476.03;;;5.61;60.66
64792;BME280;51226;47.504;19.074;2023-01-31T17:21:11;100483.69;;;5.60;60.51
64792;BME280;51226;47.504;19.074;2023-01-31T17:24:19;100484.63;;;5.60;60.59
64792;BME280;51226;47.504;19.074;2023-01-31T17:27:25;100484.78;;;5.63;60.05
64792;BME280;51226;47.504;19.074;2023-01-31T17:30:28;100483.69;;;5.60;59.80
64792;BME280;51226;47.504;19.074;2023-01-31T17:33:32;100490.12;;;5.66;59.03
64792;BME280;51226;47.504;19.074;2023-01-31T17:36:35;100484.63;;;5.60;58.63
64792;BME280;51226;47.504;19.074;2023-01-31T17:39:38;100475.16;;;5.61;58.64
64792;BME280;51226;47.504;19.074;2023-01-31T17:42:42;100478.19;;;5.68;57.38
64792;BME280;51226;47.504;19.074;2023-01-31T17:45:45;100480.87;;;5.70;57.24
64792;BME280;51226;47.504;19.074;2023-01-31T17:48:48;100483.63;;;5.58;58.59
64792;BME280;51226;47.504;19.074;2023-01-31T17:51:51;100481.37;;;5.64;57.34
64792;BME280;51226;47.504;19.074;2023-01-31T17:54:54;100479.78;;;5.66;57.07
64792;BME280;51226;47.504;19.074;2023-01-31T17:57:57;100473.53;;;5.63;57.33
64792;BME280;51226;47.504;19.074;2023-01-31T18:01:00;100476.22;;;5.64;56.92
64792;BME280;51226;47.504;19.074;2023-01-31T18:04:03;100474.44;;;5.63;57.41
64792;BME280;51226;47.504;19.074;2023-01-31T18:07:06;100477.37;;;5.69;57.09
64792;BME280;51226;47.504;19.074;2023-01-31T18:10:09;100468.53;;;5.66;56.96
64792;BME280;51226;47.504;19.074;2023-01-31T18:13:12;100466.31;;;5.72;55.64
64792;BME280;51226;47.504;19.074;2023-01-31T18:16:18;100455.34;;;5.61;55.77
64792;BME280;51226;47.504;19.074;2023-01-31T18:19:23;100454.44;;;5.61;56.47
64792;BME280;51226;47.504;19.074;2023-01-31T18:22:26;100465.53;;;5.58;57.10
64792;BME280;51226;47.504;19.074;2023-01-31T18:25:31;100466.59;;;5.62;56.35
64792;BME280;51226;47.504;19.074;2023-01-31T18:28:34;100460.19;;;5.70;55.83
64792;BME280;51226;47.504;19.074;2023-01-31T18:31:37;100463.09;;;5.61;57.08
64792;BME280;51226;47.504;19.074;2023-01-31T18:34:40;100463.91;;;5.60;57.41
64792;BME280;51226;47.504;19.074;2023-01-31T18:37:43;100452.03;;;5.64;57.06
64792;BME280;51226;47.504;19.074;2023-01-31T18:40:46;100451.50;;;5.69;56.29
64792;BME280;51226;47.504;19.074;2023-01-31T18:43:48;100453.56;;;5.75;56.04
64792;BME280;51226;47.504;19.074;2023-01-31T18:46:52;100453.03;;;5.96;54.49
64792;BME280;51226;47.504;19.074;2023-01-31T18:49:55;100462.78;;;5.85;55.19
64792;BME280;51226;47.504;19.074;2023-01-31T18:52:58;100457.50;;;5.83;54.96
64792;BME280;51226;47.504;19.074;2023-01-31T18:56:01;100456.50;;;5.81;54.96
64792;BME280;51226;47.504;19.074;2023-01-31T18:59:07;100468.38;;;5.78;55.24
64792;BME280;51226;47.504;19.074;2023-01-31T19:02:10;100468.72;;;5.69;56.16
64792;BME280;51226;47.504;19.074;2023-01-31T19:05:13;100456.44;;;5.65;56.77